PTINT SBJD-SBJD
Flight info
| Callsign | PTINT |
|---|---|
| Flight time | 1h 10m |
| Altitude | 5000 |
| Route | REA |
| Aircraft | C172/L-V/C |
Departure
| Time | 2026-04-18 19:32 |
|---|---|
| Airport | Comte. Rolim Adolfo Amaro–Jundiaí State Airport (SBJD) |
Arrival
| Time | 2026-04-18 20:43 |
|---|---|
| Airport | Comte. Rolim Adolfo Amaro–Jundiaí State Airport (SBJD) |
| Time | Latitude | Longitude | Altitude | Speed | Heading |
|---|---|---|---|---|---|
| 2026-04-18 19:18 | -23.18396 | -46.94358 | 2489 ft | 0 kts | 337° |
| 2026-04-18 19:29 | -23.18379 | -46.94354 | 2487 ft | 8 kts | 51° |
| 2026-04-18 19:29 | -23.18362 | -46.94301 | 2485 ft | 0 kts | 68° |
| 2026-04-18 19:30 | -23.18361 | -46.94300 | 2485 ft | 1 kts | 67° |
| 2026-04-18 19:31 | -23.18346 | -46.94278 | 2483 ft | 7 kts | 16° |
| 2026-04-18 19:31 | -23.18194 | -46.94345 | 2475 ft | 44 kts | 336° |
| 2026-04-18 19:31 | -23.17752 | -46.94542 | 2508 ft | 76 kts | 337° |
| 2026-04-18 19:31 | -23.17202 | -46.94767 | 2697 ft | 76 kts | 340° |
| 2026-04-18 19:32 | -23.16668 | -46.94955 | 2880 ft | 75 kts | 343° |
| 2026-04-18 19:32 | -23.16101 | -46.95120 | 3040 ft | 80 kts | 346° |
| 2026-04-18 19:32 | -23.15573 | -46.95069 | 3266 ft | 73 kts | 40° |
| 2026-04-18 19:32 | -23.15311 | -46.94537 | 3440 ft | 76 kts | 74° |
| 2026-04-18 19:33 | -23.15200 | -46.93964 | 3623 ft | 75 kts | 97° |
| 2026-04-18 19:33 | -23.15573 | -46.93496 | 3778 ft | 80 kts | 153° |
| 2026-04-18 19:33 | -23.16163 | -46.93179 | 3938 ft | 85 kts | 158° |
| 2026-04-18 19:33 | -23.16789 | -46.92912 | 3988 ft | 94 kts | 161° |
| 2026-04-18 19:34 | -23.17480 | -46.92654 | 4042 ft | 94 kts | 160° |
| 2026-04-18 19:34 | -23.18160 | -46.92353 | 4091 ft | 97 kts | 153° |
| 2026-04-18 19:34 | -23.18816 | -46.91970 | 4272 ft | 96 kts | 149° |
| 2026-04-18 19:34 | -23.19487 | -46.91584 | 4425 ft | 98 kts | 152° |
| 2026-04-18 19:35 | -23.20137 | -46.91228 | 4540 ft | 99 kts | 154° |
| 2026-04-18 19:35 | -23.20827 | -46.90847 | 4531 ft | 100 kts | 151° |
| 2026-04-18 19:35 | -23.21486 | -46.90413 | 4535 ft | 99 kts | 146° |
| 2026-04-18 19:35 | -23.22101 | -46.89943 | 4557 ft | 97 kts | 143° |
| 2026-04-18 19:36 | -23.22693 | -46.89466 | 4568 ft | 98 kts | 144° |
| 2026-04-18 19:36 | -23.23297 | -46.89011 | 4563 ft | 100 kts | 146° |
| 2026-04-18 19:36 | -23.23935 | -46.88531 | 4575 ft | 99 kts | 144° |
| 2026-04-18 19:36 | -23.24510 | -46.88070 | 4583 ft | 99 kts | 145° |
| 2026-04-18 19:37 | -23.25115 | -46.87647 | 4593 ft | 99 kts | 148° |
| 2026-04-18 19:37 | -23.25702 | -46.87243 | 4614 ft | 98 kts | 148° |
| 2026-04-18 19:37 | -23.26346 | -46.86808 | 4619 ft | 98 kts | 147° |
| 2026-04-18 19:37 | -23.26957 | -46.86393 | 4607 ft | 100 kts | 148° |
| 2026-04-18 19:38 | -23.27601 | -46.85952 | 4609 ft | 99 kts | 148° |
| 2026-04-18 19:38 | -23.28237 | -46.85505 | 4604 ft | 100 kts | 146° |
| 2026-04-18 19:38 | -23.28843 | -46.85056 | 4603 ft | 99 kts | 146° |
| 2026-04-18 19:38 | -23.29443 | -46.84609 | 4600 ft | 99 kts | 147° |
| 2026-04-18 19:39 | -23.30064 | -46.84195 | 4598 ft | 100 kts | 152° |
| 2026-04-18 19:39 | -23.30757 | -46.83796 | 4600 ft | 99 kts | 152° |
| 2026-04-18 19:39 | -23.31383 | -46.83405 | 4596 ft | 100 kts | 148° |
| 2026-04-18 19:39 | -23.31951 | -46.82887 | 4586 ft | 100 kts | 129° |
| 2026-04-18 19:40 | -23.32233 | -46.82197 | 4575 ft | 100 kts | 96° |
| 2026-04-18 19:40 | -23.32024 | -46.81422 | 4579 ft | 99 kts | 53° |
| 2026-04-18 19:40 | -23.31539 | -46.80815 | 4578 ft | 99 kts | 47° |
| 2026-04-18 19:40 | -23.31041 | -46.80226 | 4580 ft | 98 kts | 47° |
| 2026-04-18 19:41 | -23.30535 | -46.79653 | 4577 ft | 99 kts | 45° |
| 2026-04-18 19:41 | -23.30036 | -46.79097 | 4570 ft | 100 kts | 45° |
| 2026-04-18 19:41 | -23.29536 | -46.78527 | 4577 ft | 99 kts | 47° |
| 2026-04-18 19:41 | -23.29056 | -46.77975 | 4578 ft | 99 kts | 47° |
| 2026-04-18 19:42 | -23.28556 | -46.77394 | 4590 ft | 98 kts | 47° |
| 2026-04-18 19:42 | -23.28097 | -46.76843 | 4602 ft | 97 kts | 49° |
| 2026-04-18 19:42 | -23.27642 | -46.76277 | 4615 ft | 97 kts | 48° |
| 2026-04-18 19:42 | -23.27165 | -46.75735 | 4620 ft | 97 kts | 45° |
| 2026-04-18 19:43 | -23.26644 | -46.75261 | 4626 ft | 97 kts | 32° |
| 2026-04-18 19:43 | -23.26008 | -46.75003 | 4630 ft | 97 kts | 11° |
| 2026-04-18 19:43 | -23.25349 | -46.74899 | 4646 ft | 96 kts | 2° |
| 2026-04-18 19:43 | -23.24676 | -46.74887 | 4648 ft | 97 kts | 359° |
| 2026-04-18 19:44 | -23.23984 | -46.74925 | 4611 ft | 101 kts | 355° |
| 2026-04-18 19:44 | -23.23291 | -46.74981 | 4610 ft | 99 kts | 356° |
| 2026-04-18 19:44 | -23.21904 | -46.75120 | 4591 ft | 99 kts | 355° |
| 2026-04-18 19:45 | -23.21228 | -46.75185 | 4595 ft | 98 kts | 355° |
| 2026-04-18 19:45 | -23.20546 | -46.75245 | 4588 ft | 97 kts | 355° |
| 2026-04-18 19:45 | -23.19880 | -46.75309 | 4595 ft | 96 kts | 355° |
| 2026-04-18 19:45 | -23.19206 | -46.75369 | 4596 ft | 96 kts | 355° |
| 2026-04-18 19:46 | -23.18545 | -46.75426 | 4601 ft | 95 kts | 355° |
| 2026-04-18 19:46 | -23.17890 | -46.75478 | 4608 ft | 95 kts | 356° |
| 2026-04-18 19:46 | -23.17227 | -46.75536 | 4609 ft | 95 kts | 356° |
| 2026-04-18 19:46 | -23.16568 | -46.75593 | 4606 ft | 95 kts | 354° |
| 2026-04-18 19:47 | -23.15915 | -46.75696 | 4612 ft | 95 kts | 351° |
| 2026-04-18 19:47 | -23.15261 | -46.75805 | 4623 ft | 94 kts | 352° |
| 2026-04-18 19:47 | -23.14620 | -46.75910 | 4632 ft | 93 kts | 352° |
| 2026-04-18 19:47 | -23.13976 | -46.76008 | 4643 ft | 93 kts | 349° |
| 2026-04-18 19:48 | -23.13344 | -46.76165 | 4638 ft | 94 kts | 348° |
| 2026-04-18 19:48 | -23.12695 | -46.76305 | 4645 ft | 94 kts | 351° |
| 2026-04-18 19:48 | -23.12047 | -46.76416 | 4639 ft | 95 kts | 353° |
| 2026-04-18 19:48 | -23.11387 | -46.76503 | 4633 ft | 96 kts | 355° |
| 2026-04-18 19:49 | -23.10705 | -46.76573 | 4611 ft | 98 kts | 355° |
| 2026-04-18 19:49 | -23.10031 | -46.76651 | 4613 ft | 97 kts | 354° |
| 2026-04-18 19:49 | -23.09359 | -46.76722 | 4606 ft | 98 kts | 355° |
| 2026-04-18 19:49 | -23.08673 | -46.76776 | 4599 ft | 98 kts | 356° |
| 2026-04-18 19:50 | -23.08001 | -46.76808 | 4600 ft | 97 kts | 357° |
| 2026-04-18 19:50 | -23.07327 | -46.76857 | 4589 ft | 97 kts | 355° |
| 2026-04-18 19:50 | -23.06649 | -46.76931 | 4585 ft | 97 kts | 355° |
| 2026-04-18 19:50 | -23.05975 | -46.76968 | 4585 ft | 97 kts | 0° |
| 2026-04-18 19:51 | -23.05303 | -46.76954 | 4575 ft | 97 kts | 358° |
| 2026-04-18 19:51 | -23.04620 | -46.77030 | 4562 ft | 98 kts | 353° |
| 2026-04-18 19:51 | -23.03941 | -46.77122 | 4553 ft | 98 kts | 354° |
| 2026-04-18 19:51 | -23.03272 | -46.77188 | 4564 ft | 97 kts | 356° |
| 2026-04-18 19:52 | -23.02591 | -46.77233 | 4568 ft | 96 kts | 359° |
| 2026-04-18 19:52 | -23.01924 | -46.77250 | 4575 ft | 95 kts | 2° |
| 2026-04-18 19:52 | -23.01287 | -46.77132 | 4603 ft | 93 kts | 14° |
| 2026-04-18 19:52 | -23.00660 | -46.76955 | 4621 ft | 92 kts | 16° |
| 2026-04-18 19:53 | -23.00049 | -46.76758 | 4636 ft | 92 kts | 18° |
| 2026-04-18 19:53 | -22.99438 | -46.76551 | 4642 ft | 93 kts | 17° |
| 2026-04-18 19:53 | -22.98217 | -46.76100 | 4682 ft | 93 kts | 24° |
| 2026-04-18 19:54 | -22.97615 | -46.75808 | 4761 ft | 96 kts | 25° |
| 2026-04-18 19:54 | -22.97020 | -46.75524 | 4949 ft | 93 kts | 27° |
| 2026-04-18 19:54 | -22.96435 | -46.75179 | 5040 ft | 97 kts | 34° |
| 2026-04-18 19:54 | -22.95867 | -46.74734 | 5080 ft | 99 kts | 42° |
| 2026-04-18 19:55 | -22.95327 | -46.74223 | 5081 ft | 105 kts | 42° |
| 2026-04-18 19:55 | -22.94754 | -46.73681 | 5091 ft | 107 kts | 41° |
| 2026-04-18 19:55 | -22.94159 | -46.73157 | 5087 ft | 109 kts | 30° |
| 2026-04-18 19:55 | -22.93413 | -46.72986 | 5014 ft | 109 kts | 353° |
| 2026-04-18 19:56 | -22.92754 | -46.73312 | 5000 ft | 103 kts | 317° |
| 2026-04-18 19:56 | -22.92403 | -46.73959 | 5021 ft | 99 kts | 281° |
| 2026-04-18 19:56 | -22.92495 | -46.74690 | 5007 ft | 100 kts | 242° |
| 2026-04-18 19:56 | -22.93003 | -46.75153 | 5031 ft | 98 kts | 197° |
| 2026-04-18 19:57 | -22.93679 | -46.75125 | 5021 ft | 99 kts | 157° |
| 2026-04-18 19:57 | -22.94167 | -46.74611 | 5020 ft | 99 kts | 112° |
| 2026-04-18 19:57 | -22.94148 | -46.73832 | 5049 ft | 96 kts | 65° |
| 2026-04-18 19:57 | -22.93719 | -46.73275 | 5063 ft | 96 kts | 40° |
| 2026-04-18 19:58 | -22.93203 | -46.72824 | 5085 ft | 96 kts | 40° |
| 2026-04-18 19:58 | -22.92678 | -46.72351 | 5087 ft | 98 kts | 40° |
| 2026-04-18 19:58 | -22.92149 | -46.71880 | 5099 ft | 99 kts | 38° |
| 2026-04-18 19:58 | -22.91620 | -46.71418 | 5067 ft | 94 kts | 39° |
| 2026-04-18 19:59 | -22.91115 | -46.70990 | 4997 ft | 87 kts | 37° |
| 2026-04-18 19:59 | -22.90657 | -46.70602 | 4874 ft | 76 kts | 38° |
| 2026-04-18 19:59 | -22.90247 | -46.70251 | 4699 ft | 76 kts | 39° |
| 2026-04-18 19:59 | -22.89836 | -46.69888 | 4516 ft | 77 kts | 39° |
| 2026-04-18 20:00 | -22.89419 | -46.69525 | 4349 ft | 74 kts | 39° |
| 2026-04-18 20:00 | -22.89021 | -46.69179 | 4184 ft | 73 kts | 38° |
| 2026-04-18 20:00 | -22.88569 | -46.68807 | 4038 ft | 82 kts | 33° |
| 2026-04-18 20:00 | -22.88103 | -46.68459 | 4054 ft | 84 kts | 32° |
| 2026-04-18 20:01 | -22.87593 | -46.68094 | 4169 ft | 89 kts | 36° |
| 2026-04-18 20:01 | -22.87217 | -46.67585 | 4325 ft | 88 kts | 76° |
| 2026-04-18 20:01 | -22.87365 | -46.66941 | 4459 ft | 89 kts | 136° |
| 2026-04-18 20:01 | -22.87936 | -46.66793 | 4614 ft | 87 kts | 200° |
| 2026-04-18 20:02 | -22.88301 | -46.67259 | 4777 ft | 84 kts | 259° |
| 2026-04-18 20:02 | -22.88170 | -46.67863 | 4917 ft | 84 kts | 309° |
| 2026-04-18 20:02 | -22.87674 | -46.68183 | 5051 ft | 86 kts | 351° |
| 2026-04-18 20:02 | -22.87040 | -46.68115 | 5057 ft | 94 kts | 23° |
| 2026-04-18 20:03 | -22.86459 | -46.67757 | 5092 ft | 98 kts | 38° |
| 2026-04-18 20:03 | -22.85937 | -46.67262 | 5107 ft | 100 kts | 44° |
| 2026-04-18 20:03 | -22.85443 | -46.66732 | 5078 ft | 90 kts | 43° |
| 2026-04-18 20:03 | -22.84932 | -46.66298 | 4938 ft | 84 kts | 33° |
| 2026-04-18 20:04 | -22.84399 | -46.66031 | 4743 ft | 83 kts | 13° |
| 2026-04-18 20:04 | -22.83821 | -46.66073 | 4532 ft | 83 kts | 336° |
| 2026-04-18 20:04 | -22.83412 | -46.66506 | 4332 ft | 82 kts | 293° |
| 2026-04-18 20:04 | -22.83416 | -46.67092 | 4165 ft | 78 kts | 243° |
| 2026-04-18 20:05 | -22.83845 | -46.67429 | 4030 ft | 83 kts | 185° |
| 2026-04-18 20:05 | -22.84447 | -46.67487 | 3981 ft | 89 kts | 196° |
| 2026-04-18 20:05 | -22.85037 | -46.67733 | 4022 ft | 94 kts | 203° |
| 2026-04-18 20:05 | -22.85644 | -46.67952 | 4188 ft | 91 kts | 181° |
| 2026-04-18 20:06 | -22.86227 | -46.67711 | 4358 ft | 91 kts | 135° |
| 2026-04-18 20:06 | -22.86432 | -46.67084 | 4532 ft | 90 kts | 83° |
| 2026-04-18 20:06 | -22.86146 | -46.66494 | 4724 ft | 87 kts | 38° |
| 2026-04-18 20:06 | -22.85806 | -46.65977 | 4888 ft | 86 kts | 80° |
| 2026-04-18 20:07 | -22.85990 | -46.65318 | 5040 ft | 88 kts | 134° |
| 2026-04-18 20:07 | -22.86582 | -46.65016 | 5058 ft | 95 kts | 177° |
| 2026-04-18 20:07 | -22.87210 | -46.65229 | 5103 ft | 96 kts | 218° |
| 2026-04-18 20:07 | -22.87717 | -46.65741 | 5083 ft | 101 kts | 224° |
| 2026-04-18 20:08 | -22.88227 | -46.66254 | 5093 ft | 99 kts | 219° |
| 2026-04-18 20:08 | -22.88776 | -46.66700 | 5084 ft | 98 kts | 217° |
| 2026-04-18 20:08 | -22.89221 | -46.67217 | 5131 ft | 91 kts | 245° |
| 2026-04-18 20:08 | -22.89285 | -46.67909 | 5058 ft | 101 kts | 278° |
| 2026-04-18 20:09 | -22.89088 | -46.68624 | 5099 ft | 96 kts | 296° |
| 2026-04-18 20:09 | -22.88657 | -46.69190 | 5086 ft | 98 kts | 322° |
| 2026-04-18 20:09 | -22.88032 | -46.69511 | 5066 ft | 100 kts | 344° |
| 2026-04-18 20:09 | -22.87344 | -46.69537 | 5071 ft | 100 kts | 7° |
| 2026-04-18 20:10 | -22.86707 | -46.69246 | 5077 ft | 98 kts | 34° |
| 2026-04-18 20:10 | -22.86270 | -46.68671 | 5064 ft | 100 kts | 63° |
| 2026-04-18 20:10 | -22.86124 | -46.67930 | 5076 ft | 98 kts | 87° |
| 2026-04-18 20:10 | -22.86281 | -46.67207 | 5071 ft | 99 kts | 116° |
| 2026-04-18 20:11 | -22.86755 | -46.66661 | 5061 ft | 99 kts | 145° |
| 2026-04-18 20:11 | -22.87404 | -46.66401 | 5034 ft | 101 kts | 169° |
| 2026-04-18 20:11 | -22.88115 | -46.66495 | 5027 ft | 101 kts | 200° |
| 2026-04-18 20:11 | -22.88650 | -46.66971 | 5013 ft | 100 kts | 231° |
| 2026-04-18 20:12 | -22.88915 | -46.67651 | 5026 ft | 99 kts | 258° |
| 2026-04-18 20:12 | -22.88913 | -46.68401 | 5027 ft | 99 kts | 281° |
| 2026-04-18 20:12 | -22.88604 | -46.69056 | 5033 ft | 99 kts | 315° |
| 2026-04-18 20:12 | -22.88004 | -46.69420 | 5007 ft | 101 kts | 346° |
| 2026-04-18 20:13 | -22.87301 | -46.69371 | 5003 ft | 102 kts | 21° |
| 2026-04-18 20:13 | -22.86738 | -46.68957 | 5035 ft | 98 kts | 48° |
| 2026-04-18 20:13 | -22.86363 | -46.68325 | 5021 ft | 101 kts | 68° |
| 2026-04-18 20:13 | -22.86223 | -46.67586 | 5030 ft | 100 kts | 91° |
| 2026-04-18 20:14 | -22.86322 | -46.66833 | 5027 ft | 100 kts | 91° |
| 2026-04-18 20:14 | -22.86170 | -46.66130 | 5089 ft | 95 kts | 61° |
| 2026-04-18 20:14 | -22.85742 | -46.65560 | 5066 ft | 99 kts | 43° |
| 2026-04-18 20:14 | -22.85197 | -46.65087 | 5054 ft | 101 kts | 33° |
| 2026-04-18 20:15 | -22.84580 | -46.64752 | 5083 ft | 98 kts | 19° |
| 2026-04-18 20:15 | -22.83918 | -46.64616 | 5088 ft | 99 kts | 0° |
| 2026-04-18 20:15 | -22.83232 | -46.64706 | 5090 ft | 99 kts | 345° |
| 2026-04-18 20:15 | -22.82591 | -46.64987 | 5097 ft | 99 kts | 330° |
| 2026-04-18 20:16 | -22.82029 | -46.65424 | 5093 ft | 100 kts | 317° |
| 2026-04-18 20:16 | -22.81581 | -46.65991 | 5109 ft | 98 kts | 304° |
| 2026-04-18 20:16 | -22.81270 | -46.66656 | 5079 ft | 101 kts | 290° |
| 2026-04-18 20:16 | -22.81146 | -46.67388 | 5096 ft | 97 kts | 272° |
| 2026-04-18 20:17 | -22.81206 | -46.68129 | 5070 ft | 100 kts | 257° |
| 2026-04-18 20:17 | -22.81434 | -46.68842 | 5050 ft | 101 kts | 244° |
| 2026-04-18 20:17 | -22.81818 | -46.69479 | 5051 ft | 99 kts | 230° |
| 2026-04-18 20:17 | -22.82315 | -46.70004 | 5043 ft | 99 kts | 218° |
| 2026-04-18 20:18 | -22.82893 | -46.70403 | 5034 ft | 99 kts | 205° |
| 2026-04-18 20:18 | -22.83533 | -46.70648 | 5041 ft | 98 kts | 191° |
| 2026-04-18 20:18 | -22.84205 | -46.70708 | 5049 ft | 97 kts | 179° |
| 2026-04-18 20:18 | -22.84877 | -46.70615 | 5039 ft | 97 kts | 165° |
| 2026-04-18 20:19 | -22.85510 | -46.70369 | 5049 ft | 96 kts | 156° |
| 2026-04-18 20:19 | -22.86075 | -46.69981 | 5055 ft | 95 kts | 140° |
| 2026-04-18 20:19 | -22.86597 | -46.69513 | 5025 ft | 99 kts | 148° |
| 2026-04-18 20:19 | -22.87245 | -46.69264 | 5015 ft | 99 kts | 173° |
| 2026-04-18 20:20 | -22.87900 | -46.69360 | 5025 ft | 97 kts | 205° |
| 2026-04-18 20:20 | -22.88475 | -46.69757 | 5033 ft | 96 kts | 214° |
| 2026-04-18 20:20 | -22.89036 | -46.70141 | 5029 ft | 97 kts | 211° |
| 2026-04-18 20:20 | -22.89615 | -46.70518 | 5040 ft | 95 kts | 212° |
| 2026-04-18 20:21 | -22.90163 | -46.70906 | 5053 ft | 94 kts | 214° |
| 2026-04-18 20:21 | -22.90701 | -46.71320 | 5066 ft | 94 kts | 217° |
| 2026-04-18 20:21 | -22.91001 | -46.71921 | 5073 ft | 99 kts | 279° |
| 2026-04-18 20:21 | -22.90507 | -46.72389 | 5091 ft | 101 kts | 359° |
| 2026-04-18 20:22 | -22.90000 | -46.71955 | 5097 ft | 104 kts | 82° |
| 2026-04-18 20:22 | -22.90370 | -46.71361 | 5090 ft | 105 kts | 171° |
| 2026-04-18 20:22 | -22.91026 | -46.71639 | 5104 ft | 100 kts | 210° |
| 2026-04-18 20:22 | -22.91611 | -46.72035 | 5087 ft | 100 kts | 211° |
| 2026-04-18 20:23 | -22.92200 | -46.72429 | 5071 ft | 99 kts | 211° |
| 2026-04-18 20:23 | -22.92746 | -46.72861 | 5076 ft | 97 kts | 221° |
| 2026-04-18 20:23 | -22.93331 | -46.73226 | 5080 ft | 100 kts | 185° |
| 2026-04-18 20:23 | -22.93937 | -46.72894 | 5057 ft | 104 kts | 118° |
| 2026-04-18 20:24 | -22.93818 | -46.72177 | 5045 ft | 105 kts | 38° |
| 2026-04-18 20:24 | -22.93150 | -46.72202 | 5023 ft | 104 kts | 316° |
| 2026-04-18 20:24 | -22.93041 | -46.72915 | 5024 ft | 102 kts | 240° |
| 2026-04-18 20:24 | -22.93525 | -46.73454 | 5018 ft | 98 kts | 223° |
| 2026-04-18 20:25 | -22.94008 | -46.73957 | 4932 ft | 96 kts | 224° |
| 2026-04-18 20:25 | -22.94486 | -46.74465 | 4818 ft | 97 kts | 222° |
| 2026-04-18 20:25 | -22.95003 | -46.74943 | 4714 ft | 98 kts | 218° |
| 2026-04-18 20:25 | -22.95533 | -46.75419 | 4611 ft | 98 kts | 223° |
| 2026-04-18 20:26 | -22.96026 | -46.75916 | 4554 ft | 95 kts | 225° |
| 2026-04-18 20:26 | -22.96483 | -46.76422 | 4596 ft | 94 kts | 225° |
| 2026-04-18 20:26 | -22.96942 | -46.76924 | 4621 ft | 94 kts | 225° |
| 2026-04-18 20:26 | -22.97411 | -46.77441 | 4610 ft | 98 kts | 226° |
| 2026-04-18 20:27 | -22.97889 | -46.77983 | 4618 ft | 99 kts | 227° |
| 2026-04-18 20:27 | -22.98383 | -46.78497 | 4642 ft | 98 kts | 216° |
| 2026-04-18 20:27 | -22.98970 | -46.78864 | 4642 ft | 98 kts | 195° |
| 2026-04-18 20:27 | -22.99641 | -46.78825 | 4633 ft | 98 kts | 165° |
| 2026-04-18 20:28 | -23.00298 | -46.78646 | 4621 ft | 97 kts | 166° |
| 2026-04-18 20:28 | -23.00961 | -46.78482 | 4590 ft | 98 kts | 166° |
| 2026-04-18 20:28 | -23.01617 | -46.78315 | 4574 ft | 97 kts | 168° |
| 2026-04-18 20:28 | -23.02291 | -46.78171 | 4555 ft | 98 kts | 170° |
| 2026-04-18 20:29 | -23.02951 | -46.78040 | 4564 ft | 96 kts | 169° |
| 2026-04-18 20:29 | -23.03605 | -46.77902 | 4575 ft | 95 kts | 170° |
| 2026-04-18 20:29 | -23.04262 | -46.77796 | 4580 ft | 95 kts | 175° |
| 2026-04-18 20:29 | -23.04929 | -46.77751 | 4586 ft | 95 kts | 178° |
| 2026-04-18 20:30 | -23.05589 | -46.77728 | 4604 ft | 94 kts | 179° |
| 2026-04-18 20:30 | -23.06235 | -46.77702 | 4624 ft | 93 kts | 177° |
| 2026-04-18 20:30 | -23.06886 | -46.77652 | 4615 ft | 95 kts | 175° |
| 2026-04-18 20:30 | -23.07542 | -46.77589 | 4639 ft | 94 kts | 176° |
| 2026-04-18 20:31 | -23.08196 | -46.77550 | 4657 ft | 93 kts | 177° |
| 2026-04-18 20:31 | -23.08844 | -46.77501 | 4657 ft | 94 kts | 175° |
| 2026-04-18 20:31 | -23.09502 | -46.77441 | 4640 ft | 95 kts | 172° |
| 2026-04-18 20:31 | -23.10159 | -46.77381 | 4637 ft | 96 kts | 176° |
| 2026-04-18 20:32 | -23.10830 | -46.77343 | 4641 ft | 95 kts | 177° |
| 2026-04-18 20:32 | -23.11492 | -46.77274 | 4643 ft | 96 kts | 173° |
| 2026-04-18 20:32 | -23.12151 | -46.77218 | 4662 ft | 94 kts | 184° |
| 2026-04-18 20:32 | -23.12779 | -46.77424 | 4666 ft | 94 kts | 209° |
| 2026-04-18 20:33 | -23.13331 | -46.77846 | 4626 ft | 99 kts | 222° |
| 2026-04-18 20:33 | -23.13841 | -46.78365 | 4580 ft | 102 kts | 224° |
| 2026-04-18 20:33 | -23.14318 | -46.78905 | 4523 ft | 96 kts | 227° |
| 2026-04-18 20:33 | -23.14750 | -46.79411 | 4529 ft | 89 kts | 227° |
| 2026-04-18 20:34 | -23.15168 | -46.79909 | 4525 ft | 89 kts | 227° |
| 2026-04-18 20:34 | -23.15577 | -46.80412 | 4530 ft | 89 kts | 235° |
| 2026-04-18 20:34 | -23.15920 | -46.80986 | 4517 ft | 90 kts | 239° |
| 2026-04-18 20:34 | -23.16253 | -46.81551 | 4541 ft | 88 kts | 239° |
| 2026-04-18 20:35 | -23.16581 | -46.82116 | 4551 ft | 88 kts | 238° |
| 2026-04-18 20:35 | -23.16897 | -46.82689 | 4562 ft | 88 kts | 240° |
| 2026-04-18 20:35 | -23.17196 | -46.83266 | 4578 ft | 87 kts | 240° |
| 2026-04-18 20:35 | -23.17491 | -46.83835 | 4522 ft | 87 kts | 243° |
| 2026-04-18 20:36 | -23.17766 | -46.84436 | 4410 ft | 89 kts | 245° |
| 2026-04-18 20:36 | -23.18034 | -46.85050 | 4307 ft | 89 kts | 244° |
| 2026-04-18 20:36 | -23.18306 | -46.85650 | 4203 ft | 89 kts | 246° |
| 2026-04-18 20:36 | -23.18471 | -46.86286 | 4115 ft | 87 kts | 266° |
| 2026-04-18 20:37 | -23.18403 | -46.86946 | 4013 ft | 87 kts | 279° |
| 2026-04-18 20:37 | -23.18301 | -46.87588 | 3934 ft | 86 kts | 281° |
| 2026-04-18 20:37 | -23.18151 | -46.88211 | 3898 ft | 85 kts | 287° |
| 2026-04-18 20:37 | -23.17951 | -46.88806 | 3897 ft | 84 kts | 296° |
| 2026-04-18 20:38 | -23.17677 | -46.89373 | 3893 ft | 84 kts | 297° |
| 2026-04-18 20:38 | -23.17439 | -46.89957 | 3888 ft | 84 kts | 284° |
| 2026-04-18 20:38 | -23.17503 | -46.90581 | 3878 ft | 84 kts | 240° |
| 2026-04-18 20:38 | -23.17973 | -46.90933 | 3859 ft | 85 kts | 188° |
| 2026-04-18 20:39 | -23.18544 | -46.90841 | 3872 ft | 83 kts | 161° |
| 2026-04-18 20:39 | -23.19092 | -46.90648 | 3873 ft | 83 kts | 160° |
| 2026-04-18 20:39 | -23.19639 | -46.90442 | 3869 ft | 83 kts | 161° |
| 2026-04-18 20:39 | -23.20200 | -46.90247 | 3865 ft | 84 kts | 163° |
| 2026-04-18 20:40 | -23.20762 | -46.90239 | 3831 ft | 84 kts | 206° |
| 2026-04-18 20:40 | -23.21218 | -46.90653 | 3703 ft | 87 kts | 230° |
| 2026-04-18 20:40 | -23.21508 | -46.91233 | 3592 ft | 87 kts | 252° |
| 2026-04-18 20:40 | -23.21677 | -46.91849 | 3503 ft | 80 kts | 259° |
| 2026-04-18 20:41 | -23.21636 | -46.92441 | 3369 ft | 80 kts | 287° |
| 2026-04-18 20:41 | -23.21326 | -46.92930 | 3242 ft | 80 kts | 327° |
| 2026-04-18 20:41 | -23.20810 | -46.93166 | 3114 ft | 79 kts | 340° |
| 2026-04-18 20:41 | -23.20307 | -46.93379 | 2979 ft | 76 kts | 337° |
| 2026-04-18 20:42 | -23.19827 | -46.93591 | 2850 ft | 74 kts | 336° |
| 2026-04-18 20:42 | -23.19351 | -46.93810 | 2722 ft | 74 kts | 338° |
| 2026-04-18 20:42 | -23.18876 | -46.94022 | 2585 ft | 72 kts | 334° |
| 2026-04-18 20:42 | -23.18431 | -46.94230 | 2492 ft | 62 kts | 335° |
| 2026-04-18 20:43 | -23.18095 | -46.94385 | 2468 ft | 47 kts | 335° |
| 2026-04-18 20:43 | -23.17820 | -46.94513 | 2450 ft | 38 kts | 336° |
| 2026-04-18 20:43 | -23.17594 | -46.94618 | 2435 ft | 33 kts | 338° |
| 2026-04-18 20:43 | -23.17486 | -46.94620 | 2428 ft | 7 kts | 72° |
| 2026-04-18 20:44 | -23.17485 | -46.94604 | 2428 ft | 0 kts | 95° |
| 2026-04-18 20:54 | -23.17486 | -46.94597 | 2428 ft | 5 kts | 99° |
| 2026-04-18 20:54 | -23.17538 | -46.94544 | 2427 ft | 16 kts | 157° |
| 2026-04-18 20:54 | -23.17658 | -46.94490 | 2435 ft | 19 kts | 156° |
| 2026-04-18 20:54 | -23.17792 | -46.94426 | 2447 ft | 21 kts | 158° |
| 2026-04-18 20:55 | -23.17936 | -46.94361 | 2459 ft | 23 kts | 157° |
| 2026-04-18 20:55 | -23.18089 | -46.94288 | 2469 ft | 24 kts | 156° |
| 2026-04-18 20:55 | -23.18243 | -46.94217 | 2474 ft | 23 kts | 156° |
| 2026-04-18 20:55 | -23.18357 | -46.94165 | 2478 ft | 12 kts | 174° |
| 2026-04-18 20:56 | -23.18344 | -46.94225 | 2481 ft | 10 kts | 308° |
| 2026-04-18 20:56 | -23.18350 | -46.94279 | 2483 ft | 8 kts | 226° |
| 2026-04-18 20:56 | -23.18376 | -46.94339 | 2487 ft | 9 kts | 248° |
| 2026-04-18 20:56 | -23.18397 | -46.94357 | 2489 ft | 0 kts | 153° |